sensor_id;sensor_type;location;lat;lon;timestamp;P1;durP1;ratioP1;P2;durP2;ratioP2
16667;SDS011;8447;52.630;4.734;2023-04-24T00:00:16;0.67;;;0.30;;
16667;SDS011;8447;52.630;4.734;2023-04-24T00:02:43;0.63;;;0.53;;
16667;SDS011;8447;52.630;4.734;2023-04-24T00:05:11;3.33;;;1.03;;
16667;SDS011;8447;52.630;4.734;2023-04-24T00:07:38;1.17;;;0.60;;
16667;SDS011;8447;52.630;4.734;2023-04-24T00:10:07;0.90;;;0.50;;
16667;SDS011;8447;52.630;4.734;2023-04-24T00:12:33;1.13;;;0.67;;
16667;SDS011;8447;52.630;4.734;2023-04-24T00:15:00;0.50;;;0.50;;
16667;SDS011;8447;52.630;4.734;2023-04-24T00:17:26;1.70;;;0.80;;
16667;SDS011;8447;52.630;4.734;2023-04-24T00:19:53;1.97;;;0.70;;
16667;SDS011;8447;52.630;4.734;2023-04-24T00:22:23;0.97;;;0.70;;
16667;SDS011;8447;52.630;4.734;2023-04-24T00:24:49;2.87;;;0.60;;
16667;SDS011;8447;52.630;4.734;2023-04-24T00:27:17;0.57;;;0.57;;
16667;SDS011;8447;52.630;4.734;2023-04-24T00:29:44;0.67;;;0.50;;
16667;SDS011;8447;52.630;4.734;2023-04-24T00:32:10;0.60;;;0.60;;
16667;SDS011;8447;52.630;4.734;2023-04-24T00:34:36;0.50;;;0.50;;
16667;SDS011;8447;52.630;4.734;2023-04-24T00:37:03;0.80;;;0.50;;
16667;SDS011;8447;52.630;4.734;2023-04-24T00:39:30;2.10;;;0.60;;
16667;SDS011;8447;52.630;4.734;2023-04-24T00:41:56;0.50;;;0.50;;
16667;SDS011;8447;52.630;4.734;2023-04-24T00:44:24;0.60;;;0.60;;
16667;SDS011;8447;52.630;4.734;2023-04-24T00:46:51;1.03;;;0.60;;
16667;SDS011;8447;52.630;4.734;2023-04-24T00:49:19;0.97;;;0.50;;
16667;SDS011;8447;52.630;4.734;2023-04-24T00:51:46;0.97;;;0.57;;
16667;SDS011;8447;52.630;4.734;2023-04-24T00:54:14;1.53;;;0.70;;
16667;SDS011;8447;52.630;4.734;2023-04-24T00:56:41;1.13;;;0.70;;
16667;SDS011;8447;52.630;4.734;2023-04-24T00:59:07;0.70;;;0.70;;
16667;SDS011;8447;52.630;4.734;2023-04-24T01:01:35;0.50;;;0.50;;
16667;SDS011;8447;52.630;4.734;2023-04-24T01:04:02;0.80;;;0.53;;
16667;SDS011;8447;52.630;4.734;2023-04-24T01:06:29;0.97;;;0.80;;
16667;SDS011;8447;52.630;4.734;2023-04-24T01:08:57;1.20;;;0.90;;
16667;SDS011;8447;52.630;4.734;2023-04-24T01:11:23;1.80;;;0.73;;
16667;SDS011;8447;52.630;4.734;2023-04-24T01:13:50;1.37;;;0.77;;
16667;SDS011;8447;52.630;4.734;2023-04-24T01:16:17;0.80;;;0.70;;
16667;SDS011;8447;52.630;4.734;2023-04-24T01:18:47;2.23;;;0.93;;
16667;SDS011;8447;52.630;4.734;2023-04-24T01:21:13;1.40;;;0.97;;
16667;SDS011;8447;52.630;4.734;2023-04-24T01:23:42;0.80;;;0.80;;
16667;SDS011;8447;52.630;4.734;2023-04-24T01:26:09;3.10;;;1.30;;
16667;SDS011;8447;52.630;4.734;2023-04-24T01:28:35;2.33;;;1.20;;
16667;SDS011;8447;52.630;4.734;2023-04-24T01:31:02;1.73;;;0.90;;
16667;SDS011;8447;52.630;4.734;2023-04-24T01:33:28;1.67;;;1.03;;
16667;SDS011;8447;52.630;4.734;2023-04-24T01:35:56;1.90;;;1.03;;
16667;SDS011;8447;52.630;4.734;2023-04-24T01:38:22;1.87;;;0.80;;
16667;SDS011;8447;52.630;4.734;2023-04-24T01:40:50;2.90;;;0.80;;
16667;SDS011;8447;52.630;4.734;2023-04-24T01:43:17;2.07;;;0.70;;
16667;SDS011;8447;52.630;4.734;2023-04-24T01:45:43;1.73;;;0.83;;
16667;SDS011;8447;52.630;4.734;2023-04-24T01:48:10;3.87;;;1.30;;
16667;SDS011;8447;52.630;4.734;2023-04-24T01:50:37;1.27;;;0.67;;
16667;SDS011;8447;52.630;4.734;2023-04-24T01:53:03;1.00;;;0.77;;
16667;SDS011;8447;52.630;4.734;2023-04-24T01:55:30;1.83;;;0.80;;
16667;SDS011;8447;52.630;4.734;2023-04-24T01:57:58;3.50;;;0.80;;
16667;SDS011;8447;52.630;4.734;2023-04-24T02:00:25;1.70;;;0.90;;
16667;SDS011;8447;52.630;4.734;2023-04-24T02:02:52;0.87;;;0.60;;
16667;SDS011;8447;52.630;4.734;2023-04-24T02:05:18;1.20;;;1.00;;
16667;SDS011;8447;52.630;4.734;2023-04-24T02:07:44;1.20;;;0.80;;
16667;SDS011;8447;52.630;4.734;2023-04-24T02:10:11;2.07;;;0.90;;
16667;SDS011;8447;52.630;4.734;2023-04-24T02:12:37;1.63;;;1.00;;
16667;SDS011;8447;52.630;4.734;2023-04-24T02:15:05;1.70;;;0.70;;
16667;SDS011;8447;52.630;4.734;2023-04-24T02:17:32;3.47;;;0.80;;
16667;SDS011;8447;52.630;4.734;2023-04-24T02:19:58;2.17;;;0.80;;
16667;SDS011;8447;52.630;4.734;2023-04-24T02:22:24;2.47;;;0.73;;
16667;SDS011;8447;52.630;4.734;2023-04-24T02:24:51;1.43;;;0.83;;
16667;SDS011;8447;52.630;4.734;2023-04-24T02:27:17;1.67;;;0.70;;
16667;SDS011;8447;52.630;4.734;2023-04-24T02:29:44;3.47;;;0.60;;
16667;SDS011;8447;52.630;4.734;2023-04-24T02:32:11;1.97;;;0.90;;
16667;SDS011;8447;52.630;4.734;2023-04-24T02:34:40;1.17;;;0.70;;
16667;SDS011;8447;52.630;4.734;2023-04-24T02:37:06;1.07;;;0.90;;
16667;SDS011;8447;52.630;4.734;2023-04-24T02:39:33;1.07;;;0.90;;
16667;SDS011;8447;52.630;4.734;2023-04-24T02:41:59;2.17;;;0.60;;
16667;SDS011;8447;52.630;4.734;2023-04-24T02:44:26;1.60;;;0.60;;
16667;SDS011;8447;52.630;4.734;2023-04-24T02:46:53;1.83;;;0.77;;
16667;SDS011;8447;52.630;4.734;2023-04-24T02:49:20;2.10;;;0.63;;
16667;SDS011;8447;52.630;4.734;2023-04-24T02:51:47;2.17;;;0.87;;
16667;SDS011;8447;52.630;4.734;2023-04-24T02:54:13;1.13;;;0.73;;
16667;SDS011;8447;52.630;4.734;2023-04-24T02:56:39;1.67;;;0.80;;
16667;SDS011;8447;52.630;4.734;2023-04-24T02:59:06;2.33;;;0.97;;
16667;SDS011;8447;52.630;4.734;2023-04-24T03:01:32;1.60;;;0.90;;
16667;SDS011;8447;52.630;4.734;2023-04-24T03:03:59;1.63;;;0.80;;
16667;SDS011;8447;52.630;4.734;2023-04-24T03:06:26;3.13;;;1.07;;
16667;SDS011;8447;52.630;4.734;2023-04-24T03:08:53;3.27;;;0.80;;
16667;SDS011;8447;52.630;4.734;2023-04-24T03:11:19;1.03;;;0.80;;
16667;SDS011;8447;52.630;4.734;2023-04-24T03:13:46;1.37;;;0.80;;
16667;SDS011;8447;52.630;4.734;2023-04-24T03:16:12;2.70;;;1.10;;
16667;SDS011;8447;52.630;4.734;2023-04-24T03:18:38;2.97;;;1.10;;
16667;SDS011;8447;52.630;4.734;2023-04-24T03:21:05;1.50;;;1.17;;
16667;SDS011;8447;52.630;4.734;2023-04-24T03:23:32;1.40;;;0.80;;
16667;SDS011;8447;52.630;4.734;2023-04-24T03:25:59;2.83;;;0.80;;
16667;SDS011;8447;52.630;4.734;2023-04-24T03:28:25;0.80;;;0.80;;
16667;SDS011;8447;52.630;4.734;2023-04-24T03:30:52;1.73;;;0.90;;
16667;SDS011;8447;52.630;4.734;2023-04-24T03:33:18;1.10;;;0.80;;
16667;SDS011;8447;52.630;4.734;2023-04-24T03:35:45;1.73;;;0.90;;
16667;SDS011;8447;52.630;4.734;2023-04-24T03:38:11;1.50;;;1.00;;
16667;SDS011;8447;52.630;4.734;2023-04-24T03:40:39;1.77;;;1.10;;
16667;SDS011;8447;52.630;4.734;2023-04-24T03:43:05;1.30;;;1.20;;
16667;SDS011;8447;52.630;4.734;2023-04-24T03:45:31;2.50;;;1.57;;
16667;SDS011;8447;52.630;4.734;2023-04-24T03:47:58;1.50;;;1.40;;
16667;SDS011;8447;52.630;4.734;2023-04-24T03:50:24;3.83;;;2.00;;
16667;SDS011;8447;52.630;4.734;2023-04-24T03:52:51;1.77;;;1.50;;
16667;SDS011;8447;52.630;4.734;2023-04-24T03:55:18;2.07;;;1.70;;
16667;SDS011;8447;52.630;4.734;2023-04-24T03:57:46;2.73;;;2.23;;
16667;SDS011;8447;52.630;4.734;2023-04-24T04:00:12;2.23;;;1.60;;
16667;SDS011;8447;52.630;4.734;2023-04-24T04:02:39;2.57;;;2.10;;
16667;SDS011;8447;52.630;4.734;2023-04-24T04:05:05;2.47;;;1.70;;
16667;SDS011;8447;52.630;4.734;2023-04-24T04:07:33;2.07;;;1.90;;
16667;SDS011;8447;52.630;4.734;2023-04-24T04:09:59;2.00;;;1.80;;
16667;SDS011;8447;52.630;4.734;2023-04-24T04:12:25;2.10;;;1.53;;
16667;SDS011;8447;52.630;4.734;2023-04-24T04:14:53;2.37;;;1.40;;
16667;SDS011;8447;52.630;4.734;2023-04-24T04:17:19;1.60;;;1.50;;
16667;SDS011;8447;52.630;4.734;2023-04-24T04:19:46;1.40;;;1.20;;
16667;SDS011;8447;52.630;4.734;2023-04-24T04:22:12;1.67;;;1.10;;
16667;SDS011;8447;52.630;4.734;2023-04-24T04:24:38;0.67;;;0.67;;
16667;SDS011;8447;52.630;4.734;2023-04-24T04:27:05;1.93;;;0.53;;
16667;SDS011;8447;52.630;4.734;2023-04-24T04:29:33;1.03;;;0.40;;
16667;SDS011;8447;52.630;4.734;2023-04-24T04:32:01;1.17;;;0.50;;
16667;SDS011;8447;52.630;4.734;2023-04-24T04:34:27;2.00;;;0.60;;
16667;SDS011;8447;52.630;4.734;2023-04-24T04:36:54;2.43;;;0.63;;
16667;SDS011;8447;52.630;4.734;2023-04-24T04:39:20;0.87;;;0.60;;
16667;SDS011;8447;52.630;4.734;2023-04-24T04:41:46;2.97;;;0.80;;
16667;SDS011;8447;52.630;4.734;2023-04-24T04:44:14;1.10;;;0.60;;
16667;SDS011;8447;52.630;4.734;2023-04-24T04:46:40;2.63;;;0.90;;
16667;SDS011;8447;52.630;4.734;2023-04-24T04:49:08;2.97;;;1.30;;
16667;SDS011;8447;52.630;4.734;2023-04-24T04:51:35;3.30;;;2.10;;
16667;SDS011;8447;52.630;4.734;2023-04-24T04:54:02;4.90;;;1.80;;
16667;SDS011;8447;52.630;4.734;2023-04-24T04:56:28;5.23;;;2.30;;
16667;SDS011;8447;52.630;4.734;2023-04-24T04:58:55;7.40;;;3.20;;
16667;SDS011;8447;52.630;4.734;2023-04-24T05:01:21;5.93;;;3.70;;
16667;SDS011;8447;52.630;4.734;2023-04-24T05:03:49;7.33;;;3.67;;
16667;SDS011;8447;52.630;4.734;2023-04-24T05:06:16;7.80;;;4.13;;
16667;SDS011;8447;52.630;4.734;2023-04-24T05:08:43;8.33;;;3.77;;
16667;SDS011;8447;52.630;4.734;2023-04-24T05:11:09;9.63;;;4.53;;
16667;SDS011;8447;52.630;4.734;2023-04-24T05:13:36;8.17;;;5.50;;
16667;SDS011;8447;52.630;4.734;2023-04-24T05:16:02;5.13;;;3.70;;
16667;SDS011;8447;52.630;4.734;2023-04-24T05:18:28;6.07;;;3.67;;
16667;SDS011;8447;52.630;4.734;2023-04-24T05:20:55;10.83;;;4.07;;
16667;SDS011;8447;52.630;4.734;2023-04-24T05:23:23;4.07;;;2.70;;
16667;SDS011;8447;52.630;4.734;2023-04-24T05:25:49;4.70;;;3.20;;
16667;SDS011;8447;52.630;4.734;2023-04-24T05:28:15;5.30;;;4.00;;
16667;SDS011;8447;52.630;4.734;2023-04-24T05:30:42;6.57;;;2.50;;
16667;SDS011;8447;52.630;4.734;2023-04-24T05:33:08;8.63;;;3.10;;
16667;SDS011;8447;52.630;4.734;2023-04-24T05:35:35;4.63;;;2.47;;
16667;SDS011;8447;52.630;4.734;2023-04-24T05:38:01;7.30;;;3.13;;
16667;SDS011;8447;52.630;4.734;2023-04-24T05:40:29;4.47;;;2.43;;
16667;SDS011;8447;52.630;4.734;2023-04-24T05:42:55;11.00;;;3.40;;
16667;SDS011;8447;52.630;4.734;2023-04-24T05:45:22;4.30;;;2.60;;
16667;SDS011;8447;52.630;4.734;2023-04-24T05:47:48;3.90;;;2.60;;
16667;SDS011;8447;52.630;4.734;2023-04-24T05:50:17;10.23;;;2.53;;
16667;SDS011;8447;52.630;4.734;2023-04-24T05:52:43;7.23;;;2.97;;
16667;SDS011;8447;52.630;4.734;2023-04-24T05:55:10;3.43;;;2.00;;
16667;SDS011;8447;52.630;4.734;2023-04-24T05:57:37;5.90;;;2.60;;
16667;SDS011;8447;52.630;4.734;2023-04-24T06:00:04;7.17;;;2.20;;
16667;SDS011;8447;52.630;4.734;2023-04-24T06:02:33;7.73;;;2.87;;
16667;SDS011;8447;52.630;4.734;2023-04-24T06:04:59;9.20;;;2.93;;
16667;SDS011;8447;52.630;4.734;2023-04-24T06:07:26;6.17;;;3.00;;
16667;SDS011;8447;52.630;4.734;2023-04-24T06:09:53;5.83;;;2.40;;
16667;SDS011;8447;52.630;4.734;2023-04-24T06:12:19;9.47;;;3.03;;
16667;SDS011;8447;52.630;4.734;2023-04-24T06:14:47;10.90;;;3.23;;
16667;SDS011;8447;52.630;4.734;2023-04-24T06:17:13;5.80;;;2.43;;
16667;SDS011;8447;52.630;4.734;2023-04-24T06:19:40;8.30;;;3.00;;
16667;SDS011;8447;52.630;4.734;2023-04-24T06:22:06;5.97;;;2.50;;
16667;SDS011;8447;52.630;4.734;2023-04-24T06:24:33;9.30;;;2.57;;
16667;SDS011;8447;52.630;4.734;2023-04-24T06:27:00;7.33;;;1.90;;
16667;SDS011;8447;52.630;4.734;2023-04-24T06:29:26;4.90;;;2.13;;
16667;SDS011;8447;52.630;4.734;2023-04-24T06:31:54;5.10;;;2.10;;
16667;SDS011;8447;52.630;4.734;2023-04-24T06:34:20;6.57;;;2.57;;
16667;SDS011;8447;52.630;4.734;2023-04-24T06:36:47;5.00;;;1.90;;
16667;SDS011;8447;52.630;4.734;2023-04-24T06:39:13;6.17;;;2.60;;
16667;SDS011;8447;52.630;4.734;2023-04-24T06:41:39;5.80;;;2.23;;
16667;SDS011;8447;52.630;4.734;2023-04-24T06:44:06;6.70;;;2.40;;
16667;SDS011;8447;52.630;4.734;2023-04-24T06:46:32;10.27;;;2.43;;
16667;SDS011;8447;52.630;4.734;2023-04-24T06:49:00;5.73;;;1.63;;
16667;SDS011;8447;52.630;4.734;2023-04-24T06:51:26;4.43;;;2.57;;
16667;SDS011;8447;52.630;4.734;2023-04-24T06:53:53;9.23;;;2.00;;
16667;SDS011;8447;52.630;4.734;2023-04-24T06:56:21;6.27;;;2.30;;
16667;SDS011;8447;52.630;4.734;2023-04-24T06:58:47;9.77;;;2.07;;
16667;SDS011;8447;52.630;4.734;2023-04-24T07:01:14;6.47;;;2.37;;
16667;SDS011;8447;52.630;4.734;2023-04-24T07:03:40;7.30;;;2.33;;
16667;SDS011;8447;52.630;4.734;2023-04-24T07:06:08;6.23;;;1.80;;
16667;SDS011;8447;52.630;4.734;2023-04-24T07:08:36;6.50;;;2.13;;
16667;SDS011;8447;52.630;4.734;2023-04-24T07:11:02;5.77;;;2.03;;
16667;SDS011;8447;52.630;4.734;2023-04-24T07:13:29;6.03;;;2.10;;
16667;SDS011;8447;52.630;4.734;2023-04-24T07:15:55;7.30;;;2.23;;
16667;SDS011;8447;52.630;4.734;2023-04-24T07:18:22;6.97;;;1.73;;
16667;SDS011;8447;52.630;4.734;2023-04-24T07:20:49;8.00;;;1.83;;
16667;SDS011;8447;52.630;4.734;2023-04-24T07:23:17;9.33;;;2.07;;
16667;SDS011;8447;52.630;4.734;2023-04-24T07:25:43;6.77;;;2.40;;
16667;SDS011;8447;52.630;4.734;2023-04-24T07:28:10;11.70;;;1.73;;
16667;SDS011;8447;52.630;4.734;2023-04-24T07:30:36;9.60;;;1.90;;
16667;SDS011;8447;52.630;4.734;2023-04-24T07:33:02;8.37;;;1.90;;
16667;SDS011;8447;52.630;4.734;2023-04-24T07:35:29;5.63;;;2.27;;
16667;SDS011;8447;52.630;4.734;2023-04-24T07:37:55;12.37;;;1.97;;
16667;SDS011;8447;52.630;4.734;2023-04-24T07:40:23;7.40;;;1.73;;
16667;SDS011;8447;52.630;4.734;2023-04-24T07:42:49;7.70;;;1.67;;
16667;SDS011;8447;52.630;4.734;2023-04-24T07:45:16;6.97;;;1.43;;
16667;SDS011;8447;52.630;4.734;2023-04-24T07:47:42;8.80;;;1.70;;
16667;SDS011;8447;52.630;4.734;2023-04-24T07:50:10;7.07;;;1.80;;
16667;SDS011;8447;52.630;4.734;2023-04-24T07:52:37;4.13;;;1.70;;
16667;SDS011;8447;52.630;4.734;2023-04-24T07:55:03;8.17;;;1.83;;
16667;SDS011;8447;52.630;4.734;2023-04-24T07:57:31;9.60;;;1.60;;
16667;SDS011;8447;52.630;4.734;2023-04-24T07:59:58;7.30;;;1.60;;
16667;SDS011;8447;52.630;4.734;2023-04-24T08:02:24;8.73;;;1.43;;
16667;SDS011;8447;52.630;4.734;2023-04-24T08:04:52;12.33;;;1.80;;
16667;SDS011;8447;52.630;4.734;2023-04-24T08:07:19;5.33;;;1.27;;
16667;SDS011;8447;52.630;4.734;2023-04-24T08:09:45;6.07;;;1.40;;
16667;SDS011;8447;52.630;4.734;2023-04-24T08:12:11;3.67;;;1.20;;
16667;SDS011;8447;52.630;4.734;2023-04-24T08:14:39;9.07;;;1.33;;
16667;SDS011;8447;52.630;4.734;2023-04-24T08:17:05;11.33;;;2.00;;
16667;SDS011;8447;52.630;4.734;2023-04-24T08:19:32;6.77;;;1.40;;
16667;SDS011;8447;52.630;4.734;2023-04-24T08:21:58;4.93;;;1.30;;
16667;SDS011;8447;52.630;4.734;2023-04-24T08:24:25;5.10;;;1.50;;
16667;SDS011;8447;52.630;4.734;2023-04-24T08:26:51;4.27;;;1.17;;
16667;SDS011;8447;52.630;4.734;2023-04-24T08:29:19;5.07;;;1.20;;
16667;SDS011;8447;52.630;4.734;2023-04-24T08:31:47;5.70;;;1.20;;
16667;SDS011;8447;52.630;4.734;2023-04-24T08:34:13;7.37;;;1.40;;
16667;SDS011;8447;52.630;4.734;2023-04-24T08:36:39;3.77;;;1.30;;
16667;SDS011;8447;52.630;4.734;2023-04-24T08:39:06;2.87;;;1.20;;
16667;SDS011;8447;52.630;4.734;2023-04-24T08:41:33;3.40;;;1.13;;
16667;SDS011;8447;52.630;4.734;2023-04-24T08:44:00;3.53;;;1.20;;
16667;SDS011;8447;52.630;4.734;2023-04-24T08:46:27;7.87;;;1.57;;
16667;SDS011;8447;52.630;4.734;2023-04-24T08:48:57;5.40;;;1.70;;
16667;SDS011;8447;52.630;4.734;2023-04-24T08:51:23;6.23;;;1.37;;
16667;SDS011;8447;52.630;4.734;2023-04-24T08:53:51;6.47;;;1.30;;
16667;SDS011;8447;52.630;4.734;2023-04-24T08:56:19;7.40;;;1.50;;
16667;SDS011;8447;52.630;4.734;2023-04-24T08:58:46;7.10;;;1.57;;
16667;SDS011;8447;52.630;4.734;2023-04-24T09:01:13;6.97;;;2.20;;
16667;SDS011;8447;52.630;4.734;2023-04-24T09:03:39;6.83;;;1.97;;
16667;SDS011;8447;52.630;4.734;2023-04-24T09:06:07;4.57;;;1.27;;
16667;SDS011;8447;52.630;4.734;2023-04-24T09:08:34;3.13;;;1.30;;
16667;SDS011;8447;52.630;4.734;2023-04-24T09:11:01;5.87;;;1.80;;
16667;SDS011;8447;52.630;4.734;2023-04-24T09:13:28;8.87;;;1.57;;
16667;SDS011;8447;52.630;4.734;2023-04-24T09:15:55;4.83;;;1.13;;
16667;SDS011;8447;52.630;4.734;2023-04-24T09:18:22;5.47;;;1.40;;
16667;SDS011;8447;52.630;4.734;2023-04-24T09:20:58;8.33;;;2.80;;
16667;SDS011;8447;52.630;4.734;2023-04-24T09:23:26;10.47;;;1.77;;
16667;SDS011;8447;52.630;4.734;2023-04-24T09:25:54;5.27;;;1.77;;
16667;SDS011;8447;52.630;4.734;2023-04-24T09:28:22;4.37;;;1.43;;
16667;SDS011;8447;52.630;4.734;2023-04-24T09:31:01;3.87;;;1.20;;
16667;SDS011;8447;52.630;4.734;2023-04-24T09:33:28;4.03;;;1.53;;
16667;SDS011;8447;52.630;4.734;2023-04-24T09:35:54;4.63;;;1.20;;
16667;SDS011;8447;52.630;4.734;2023-04-24T09:38:24;3.17;;;1.00;;
16667;SDS011;8447;52.630;4.734;2023-04-24T09:41:00;6.63;;;1.47;;
16667;SDS011;8447;52.630;4.734;2023-04-24T09:43:27;2.83;;;1.00;;
16667;SDS011;8447;52.630;4.734;2023-04-24T09:45:55;3.33;;;0.90;;
16667;SDS011;8447;52.630;4.734;2023-04-24T09:48:29;3.63;;;1.20;;
16667;SDS011;8447;52.630;4.734;2023-04-24T09:50:55;2.03;;;0.90;;
16667;SDS011;8447;52.630;4.734;2023-04-24T09:53:23;3.07;;;0.97;;
16667;SDS011;8447;52.630;4.734;2023-04-24T09:55:50;7.57;;;1.13;;
16667;SDS011;8447;52.630;4.734;2023-04-24T09:58:19;4.40;;;1.13;;
16667;SDS011;8447;52.630;4.734;2023-04-24T10:00:50;4.30;;;1.17;;
16667;SDS011;8447;52.630;4.734;2023-04-24T10:03:20;4.77;;;1.00;;
16667;SDS011;8447;52.630;4.734;2023-04-24T10:05:47;3.80;;;1.00;;
16667;SDS011;8447;52.630;4.734;2023-04-24T10:08:13;3.03;;;1.07;;
16667;SDS011;8447;52.630;4.734;2023-04-24T10:10:40;5.90;;;1.20;;
16667;SDS011;8447;52.630;4.734;2023-04-24T10:13:06;6.07;;;1.10;;
16667;SDS011;8447;52.630;4.734;2023-04-24T10:15:34;5.07;;;1.20;;
16667;SDS011;8447;52.630;4.734;2023-04-24T10:18:01;3.23;;;1.20;;
16667;SDS011;8447;52.630;4.734;2023-04-24T10:20:28;5.43;;;1.40;;
16667;SDS011;8447;52.630;4.734;2023-04-24T10:22:56;3.70;;;0.73;;
16667;SDS011;8447;52.630;4.734;2023-04-24T10:25:23;5.70;;;1.27;;
16667;SDS011;8447;52.630;4.734;2023-04-24T10:27:51;3.03;;;1.13;;
16667;SDS011;8447;52.630;4.734;2023-04-24T10:30:18;2.43;;;0.60;;
16667;SDS011;8447;52.630;4.734;2023-04-24T10:32:46;2.63;;;0.97;;
16667;SDS011;8447;52.630;4.734;2023-04-24T10:35:12;5.87;;;1.07;;
16667;SDS011;8447;52.630;4.734;2023-04-24T10:37:40;3.83;;;1.50;;
16667;SDS011;8447;52.630;4.734;2023-04-24T10:40:09;5.17;;;1.00;;
16667;SDS011;8447;52.630;4.734;2023-04-24T10:42:36;2.60;;;0.90;;
16667;SDS011;8447;52.630;4.734;2023-04-24T10:45:06;8.43;;;1.47;;
16667;SDS011;8447;52.630;4.734;2023-04-24T10:47:39;4.27;;;1.10;;
16667;SDS011;8447;52.630;4.734;2023-04-24T10:50:09;4.03;;;0.87;;
16667;SDS011;8447;52.630;4.734;2023-04-24T10:52:45;1.77;;;0.77;;
16667;SDS011;8447;52.630;4.734;2023-04-24T10:55:12;3.00;;;0.80;;
16667;SDS011;8447;52.630;4.734;2023-04-24T10:57:38;3.17;;;0.77;;
16667;SDS011;8447;52.630;4.734;2023-04-24T11:00:14;2.67;;;0.90;;
16667;SDS011;8447;52.630;4.734;2023-04-24T11:02:41;4.60;;;0.83;;
16667;SDS011;8447;52.630;4.734;2023-04-24T11:05:15;2.53;;;0.77;;
16667;SDS011;8447;52.630;4.734;2023-04-24T11:10:27;2.27;;;0.70;;
16667;SDS011;8447;52.630;4.734;2023-04-24T11:12:54;5.63;;;1.13;;
16667;SDS011;8447;52.630;4.734;2023-04-24T11:15:20;8.67;;;1.60;;
16667;SDS011;8447;52.630;4.734;2023-04-24T11:17:47;7.57;;;1.30;;
16667;SDS011;8447;52.630;4.734;2023-04-24T11:20:17;2.47;;;0.90;;
16667;SDS011;8447;52.630;4.734;2023-04-24T11:22:44;7.07;;;1.43;;
16667;SDS011;8447;52.630;4.734;2023-04-24T11:25:10;6.83;;;1.33;;
16667;SDS011;8447;52.630;4.734;2023-04-24T11:27:38;3.70;;;1.20;;
16667;SDS011;8447;52.630;4.734;2023-04-24T11:30:05;7.20;;;1.20;;
16667;SDS011;8447;52.630;4.734;2023-04-24T11:32:34;3.13;;;1.10;;
16667;SDS011;8447;52.630;4.734;2023-04-24T11:35:01;5.23;;;1.03;;
16667;SDS011;8447;52.630;4.734;2023-04-24T11:37:33;3.57;;;0.60;;
16667;SDS011;8447;52.630;4.734;2023-04-24T11:40:00;3.30;;;0.90;;
16667;SDS011;8447;52.630;4.734;2023-04-24T11:42:27;4.10;;;0.73;;
16667;SDS011;8447;52.630;4.734;2023-04-24T11:44:54;4.50;;;1.00;;
16667;SDS011;8447;52.630;4.734;2023-04-24T11:47:27;4.60;;;1.07;;
16667;SDS011;8447;52.630;4.734;2023-04-24T11:49:53;8.87;;;2.20;;
16667;SDS011;8447;52.630;4.734;2023-04-24T11:52:20;5.23;;;1.40;;
16667;SDS011;8447;52.630;4.734;2023-04-24T11:54:49;3.87;;;1.50;;
16667;SDS011;8447;52.630;4.734;2023-04-24T11:57:16;7.03;;;2.00;;
16667;SDS011;8447;52.630;4.734;2023-04-24T11:59:42;6.53;;;1.03;;
16667;SDS011;8447;52.630;4.734;2023-04-24T12:02:08;3.53;;;1.07;;
16667;SDS011;8447;52.630;4.734;2023-04-24T12:04:38;4.17;;;1.30;;
16667;SDS011;8447;52.630;4.734;2023-04-24T12:07:05;6.57;;;1.27;;
16667;SDS011;8447;52.630;4.734;2023-04-24T12:09:43;3.37;;;1.07;;
16667;SDS011;8447;52.630;4.734;2023-04-24T12:12:11;2.97;;;0.73;;
16667;SDS011;8447;52.630;4.734;2023-04-24T12:14:44;3.40;;;0.80;;
16667;SDS011;8447;52.630;4.734;2023-04-24T12:17:10;3.03;;;0.93;;
16667;SDS011;8447;52.630;4.734;2023-04-24T12:19:37;5.17;;;1.13;;
16667;SDS011;8447;52.630;4.734;2023-04-24T12:22:04;3.97;;;0.97;;
16667;SDS011;8447;52.630;4.734;2023-04-24T12:24:30;7.37;;;1.43;;
16667;SDS011;8447;52.630;4.734;2023-04-24T12:26:57;4.23;;;1.23;;
16667;SDS011;8447;52.630;4.734;2023-04-24T12:29:25;5.20;;;1.40;;
16667;SDS011;8447;52.630;4.734;2023-04-24T12:31:51;6.63;;;1.67;;
16667;SDS011;8447;52.630;4.734;2023-04-24T12:34:18;8.30;;;1.77;;
16667;SDS011;8447;52.630;4.734;2023-04-24T12:36:45;7.87;;;1.70;;
16667;SDS011;8447;52.630;4.734;2023-04-24T12:39:14;4.27;;;1.37;;
16667;SDS011;8447;52.630;4.734;2023-04-24T12:41:50;12.50;;;2.10;;
16667;SDS011;8447;52.630;4.734;2023-04-24T12:44:16;6.07;;;1.70;;
16667;SDS011;8447;52.630;4.734;2023-04-24T12:46:44;9.07;;;1.50;;
16667;SDS011;8447;52.630;4.734;2023-04-24T12:49:11;5.63;;;1.47;;
16667;SDS011;8447;52.630;4.734;2023-04-24T12:51:37;6.37;;;2.00;;
16667;SDS011;8447;52.630;4.734;2023-04-24T12:54:04;5.90;;;1.70;;
16667;SDS011;8447;52.630;4.734;2023-04-24T12:56:31;3.57;;;1.10;;
16667;SDS011;8447;52.630;4.734;2023-04-24T12:58:57;5.40;;;1.33;;
16667;SDS011;8447;52.630;4.734;2023-04-24T13:01:24;10.33;;;1.67;;
16667;SDS011;8447;52.630;4.734;2023-04-24T13:03:51;5.80;;;1.60;;
16667;SDS011;8447;52.630;4.734;2023-04-24T13:06:18;5.80;;;2.03;;
16667;SDS011;8447;52.630;4.734;2023-04-24T13:08:46;7.30;;;1.60;;
16667;SDS011;8447;52.630;4.734;2023-04-24T13:11:12;5.40;;;1.63;;
16667;SDS011;8447;52.630;4.734;2023-04-24T13:13:39;5.37;;;1.27;;
16667;SDS011;8447;52.630;4.734;2023-04-24T13:16:05;6.77;;;1.50;;
16667;SDS011;8447;52.630;4.734;2023-04-24T13:18:32;7.23;;;1.80;;
16667;SDS011;8447;52.630;4.734;2023-04-24T13:20:59;7.77;;;1.90;;
16667;SDS011;8447;52.630;4.734;2023-04-24T13:23:26;7.40;;;2.00;;
16667;SDS011;8447;52.630;4.734;2023-04-24T13:25:53;8.57;;;2.37;;
16667;SDS011;8447;52.630;4.734;2023-04-24T13:28:22;6.10;;;1.57;;
16667;SDS011;8447;52.630;4.734;2023-04-24T13:30:49;7.77;;;1.53;;
16667;SDS011;8447;52.630;4.734;2023-04-24T13:33:16;7.83;;;1.63;;
16667;SDS011;8447;52.630;4.734;2023-04-24T13:35:42;5.57;;;1.90;;
16667;SDS011;8447;52.630;4.734;2023-04-24T13:38:10;5.17;;;1.30;;
16667;SDS011;8447;52.630;4.734;2023-04-24T13:40:36;7.23;;;1.83;;
16667;SDS011;8447;52.630;4.734;2023-04-24T13:43:03;11.40;;;1.67;;
16667;SDS011;8447;52.630;4.734;2023-04-24T13:45:29;7.60;;;2.17;;
16667;SDS011;8447;52.630;4.734;2023-04-24T13:47:55;9.17;;;2.33;;
16667;SDS011;8447;52.630;4.734;2023-04-24T13:50:22;7.13;;;2.07;;
16667;SDS011;8447;52.630;4.734;2023-04-24T13:52:48;6.93;;;1.73;;
16667;SDS011;8447;52.630;4.734;2023-04-24T13:55:16;9.03;;;1.80;;
16667;SDS011;8447;52.630;4.734;2023-04-24T13:57:43;8.13;;;2.17;;
16667;SDS011;8447;52.630;4.734;2023-04-24T14:00:09;8.17;;;2.07;;
16667;SDS011;8447;52.630;4.734;2023-04-24T14:02:36;9.13;;;1.60;;
16667;SDS011;8447;52.630;4.734;2023-04-24T14:05:02;6.17;;;1.67;;
16667;SDS011;8447;52.630;4.734;2023-04-24T14:07:30;7.87;;;2.40;;
16667;SDS011;8447;52.630;4.734;2023-04-24T14:09:56;4.90;;;1.80;;
16667;SDS011;8447;52.630;4.734;2023-04-24T14:12:24;6.13;;;1.20;;
16667;SDS011;8447;52.630;4.734;2023-04-24T14:14:51;8.10;;;1.70;;
16667;SDS011;8447;52.630;4.734;2023-04-24T14:17:17;9.37;;;2.17;;
16667;SDS011;8447;52.630;4.734;2023-04-24T14:19:43;4.60;;;1.70;;
16667;SDS011;8447;52.630;4.734;2023-04-24T14:22:10;4.30;;;1.27;;
16667;SDS011;8447;52.630;4.734;2023-04-24T14:24:36;9.33;;;1.57;;
16667;SDS011;8447;52.630;4.734;2023-04-24T14:27:03;5.83;;;1.73;;
16667;SDS011;8447;52.630;4.734;2023-04-24T14:29:30;7.17;;;1.50;;
16667;SDS011;8447;52.630;4.734;2023-04-24T14:31:57;9.00;;;1.97;;
16667;SDS011;8447;52.630;4.734;2023-04-24T14:34:23;7.77;;;1.87;;
16667;SDS011;8447;52.630;4.734;2023-04-24T14:36:49;5.77;;;1.13;;
16667;SDS011;8447;52.630;4.734;2023-04-24T14:39:16;5.10;;;1.40;;
16667;SDS011;8447;52.630;4.734;2023-04-24T14:41:42;10.13;;;1.83;;
16667;SDS011;8447;52.630;4.734;2023-04-24T14:44:09;4.47;;;1.40;;
16667;SDS011;8447;52.630;4.734;2023-04-24T14:46:36;3.93;;;1.10;;
16667;SDS011;8447;52.630;4.734;2023-04-24T14:49:03;3.03;;;1.00;;
16667;SDS011;8447;52.630;4.734;2023-04-24T14:51:30;9.50;;;1.77;;
16667;SDS011;8447;52.630;4.734;2023-04-24T14:53:56;10.33;;;1.50;;
16667;SDS011;8447;52.630;4.734;2023-04-24T14:56:22;10.00;;;1.90;;
16667;SDS011;8447;52.630;4.734;2023-04-24T14:58:49;6.80;;;1.80;;
16667;SDS011;8447;52.630;4.734;2023-04-24T15:01:16;9.93;;;1.63;;